Time;durP1;ratioP1;P1;durP2;ratioP2;P2;SDS_P1;SDS_P2;PMS_P1;PMS_P2;Temp;Humidity;BMP_temperature;BMP_pressure;BME280_temperature;BME280_humidity;BME280_pressure;Samples;Min_cycle;Max_cycle;Signal;HPM_P1;HPM_P2
2023/07/24 00:02:08;;;;;;;0.00;0.00;;;;;;;17.56;100.00;100371.84;5053124;28;20143;-46
2023/07/24 00:04:33;;;;;;;0.00;0.00;;;;;;;17.53;100.00;100353.28;5053462;28;20425;-48
2023/07/24 00:07:00;;;;;;;0.00;0.00;;;;;;;17.54;100.00;100346.78;5053308;28;20459;-45
2023/07/24 00:09:25;;;;;;;0.00;0.00;;;;;;;17.59;100.00;100341.47;5052651;28;20070;-48
2023/07/24 00:11:50;;;;;;;0.00;0.00;;;;;;;17.56;100.00;100350.06;5052649;28;20037;-46
2023/07/24 00:14:16;;;;;;;0.00;0.00;;;;;;;17.55;100.00;100340.28;5052248;28;20020;-47
2023/07/24 00:16:42;;;;;;;0.00;0.00;;;;;;;17.57;100.00;100332.69;5052020;28;20479;-50
2023/07/24 00:19:07;;;;;;;0.00;0.00;;;;;;;17.62;100.00;100340.97;5050800;28;20040;-51
2023/07/24 00:21:32;;;;;;;0.00;0.00;;;;;;;17.59;100.00;100346.91;5034274;28;20025;-46
2023/07/24 00:23:58;;;;;;;0.00;0.00;;;;;;;17.58;100.00;100334.34;5032132;28;20061;-47
2023/07/24 00:26:23;;;;;;;0.00;0.00;;;;;;;17.52;100.00;100340.75;5032272;28;20021;-51
2023/07/24 00:28:48;;;;;;;0.00;0.00;;;;;;;17.50;100.00;100323.84;5031906;28;20057;-48
2023/07/24 00:31:14;;;;;;;0.00;0.00;;;;;;;17.47;100.00;100310.72;5032584;28;20361;-45
2023/07/24 00:33:39;;;;;;;0.00;0.00;;;;;;;17.43;100.00;100317.69;5031437;28;20030;-47
2023/07/24 00:36:05;;;;;;;0.00;0.00;;;;;;;17.42;100.00;100318.78;5032363;28;20032;-44
2023/07/24 00:38:30;;;;;;;0.00;0.00;;;;;;;17.40;100.00;100316.28;5032503;28;20144;-46
2023/07/24 00:40:56;;;;;;;0.00;0.00;;;;;;;17.40;100.00;100326.34;5032612;28;20022;-45
2023/07/24 00:43:21;;;;;;;0.00;0.00;;;;;;;17.39;100.00;100308.38;5032285;28;20087;-47
2023/07/24 00:45:47;;;;;;;0.00;0.00;;;;;;;17.40;100.00;100307.31;5032090;28;20045;-46
2023/07/24 00:48:12;;;;;;;0.00;0.00;;;;;;;17.38;100.00;100304.84;5032068;28;20032;-47
2023/07/24 00:50:38;;;;;;;0.00;0.00;;;;;;;17.39;100.00;100298.31;5031773;28;20022;-50
2023/07/24 00:53:04;;;;;;;0.00;0.00;;;;;;;17.42;100.00;100302.44;5032408;28;20033;-44
2023/07/24 00:55:29;;;;;;;0.00;0.00;;;;;;;17.39;100.00;100294.78;5030588;28;20373;-48
2023/07/24 00:57:57;;;;;;;0.00;0.00;;;;;;;17.36;100.00;100298.81;4994877;28;1086960;-47
2023/07/24 01:00:23;;;;;;;0.00;0.00;;;;;;;17.33;100.00;100294.66;5032652;28;20471;-47
2023/07/24 01:02:48;;;;;;;0.00;0.00;;;;;;;17.32;100.00;100303.91;5032529;28;20480;-47
2023/07/24 01:05:16;;;;;;;0.00;0.00;;;;;;;17.33;100.00;100305.53;5032243;28;20488;-47
2023/07/24 01:07:42;;;;;;;0.00;0.00;;;;;;;17.33;100.00;100315.59;5032366;28;20053;-48
2023/07/24 01:10:08;;;;;;;0.00;0.00;;;;;;;17.32;100.00;100316.66;5032450;28;20076;-47
2023/07/24 01:12:46;;;;;;;0.00;0.00;;;;;;;17.29;100.00;100309.81;5032207;28;20029;-49
2023/07/24 01:15:20;;;;;;;0.00;0.00;;;;;;;17.29;100.00;100309.81;5030929;28;20040;-48
2023/07/24 01:17:48;;;;;;;0.00;0.00;;;;;;;17.27;100.00;100306.53;5032047;28;20491;-47
2023/07/24 01:20:15;;;;;;;0.00;0.00;;;;;;;17.27;100.00;100306.53;5030614;28;20049;-47
2023/07/24 01:23:20;;;;;;;0.00;0.00;;;;;;;17.27;100.00;100290.19;5030982;28;20048;-47
2023/07/24 01:25:50;;;;;;;0.00;0.00;;;;;;;17.30;100.00;100300.59;5034522;28;20476;-45
2023/07/24 01:28:16;;;;;;;0.00;0.00;;;;;;;17.28;100.00;100297.28;5031128;28;20025;-47
2023/07/24 01:30:41;;;;;;;0.00;0.00;;;;;;;17.26;100.00;100295.88;5031796;28;20037;-46
2023/07/24 01:33:06;;;;;;;0.00;0.00;;;;;;;17.26;100.00;100298.59;5031777;28;20072;-48
2023/07/24 01:35:32;;;;;;;0.00;0.00;;;;;;;17.26;100.00;100287.72;5030516;28;20022;-45
2023/07/24 01:37:58;;;;;;;0.00;0.00;;;;;;;17.25;100.00;100296.94;5030359;28;20476;-46
2023/07/24 01:40:24;;;;;;;0.00;0.00;;;;;;;17.25;100.00;100295.03;5031572;28;20032;-49
2023/07/24 01:42:50;;;;;;;0.00;0.00;;;;;;;17.21;100.00;100291.13;5031607;28;20029;-47
2023/07/24 01:45:15;;;;;;;0.00;0.00;;;;;;;17.21;100.00;100288.41;5030107;28;20447;-47
2023/07/24 01:47:41;;;;;;;0.00;0.00;;;;;;;17.21;100.00;100285.69;5031547;28;20132;-47
2023/07/24 01:50:07;;;;;;;0.00;0.00;;;;;;;17.21;100.00;100285.69;5031420;28;20033;-46
2023/07/24 01:52:32;;;;;;;0.00;0.00;;;;;;;17.20;100.00;100289.50;5031329;28;20036;-49
2023/07/24 01:54:57;;;;;;;0.00;0.00;;;;;;;17.21;100.00;100296.56;5031628;28;20325;-49
2023/07/24 01:57:23;;;;;;;0.00;0.00;;;;;;;17.19;100.00;100292.44;5031198;28;20073;-49
2023/07/24 01:59:48;;;;;;;0.00;0.00;;;;;;;17.19;100.00;100287.00;5031178;28;20053;-48
2023/07/24 02:02:14;;;;;;;0.00;0.00;;;;;;;17.19;100.00;100284.28;5029782;28;20060;-49
2023/07/24 02:04:39;;;;;;;0.00;0.00;;;;;;;17.21;100.00;100274.00;5031209;28;20026;-48
2023/07/24 02:07:04;;;;;;;0.00;0.00;;;;;;;17.17;100.00;100265.50;5031431;28;20115;-46
2023/07/24 02:09:30;;;;;;;0.00;0.00;;;;;;;17.15;100.00;100262.19;5031635;28;20037;-48
2023/07/24 02:11:55;;;;;;;0.00;0.00;;;;;;;17.13;100.00;100271.66;5031406;28;20025;-47
2023/07/24 02:14:21;;;;;;;0.00;0.00;;;;;;;17.13;100.00;100264.31;5029961;28;20036;-44
2023/07/24 02:16:46;;;;;;;0.00;0.00;;;;;;;17.08;100.00;100270.47;5031101;28;20033;-48
2023/07/24 02:19:11;;;;;;;0.00;0.00;;;;;;;17.06;100.00;100278.06;5030961;28;20030;-49
2023/07/24 02:21:37;;;;;;;0.00;0.00;;;;;;;17.07;100.00;100273.44;5030759;28;20026;-48
2023/07/24 02:24:03;;;;;;;0.00;0.00;;;;;;;17.07;100.00;100284.31;5031054;28;20028;-48
2023/07/24 02:26:28;;;;;;;0.00;0.00;;;;;;;17.11;100.00;100272.72;5031083;28;20105;-48
2023/07/24 02:28:53;;;;;;;0.00;0.00;;;;;;;17.14;100.00;100263.28;5031148;28;20025;-47
2023/07/24 02:31:19;;;;;;;0.00;0.00;;;;;;;17.13;100.00;100255.34;5029486;28;20109;-48
2023/07/24 02:33:44;;;;;;;0.00;0.00;;;;;;;17.13;100.00;100260.78;5031258;28;20033;-45
2023/07/24 02:36:10;;;;;;;0.00;0.00;;;;;;;17.10;100.00;100256.66;5032049;28;20128;-42
2023/07/24 02:38:35;;;;;;;0.00;0.00;;;;;;;17.12;100.00;100249.09;5032483;28;20040;-44
2023/07/24 02:41:00;;;;;;;0.00;0.00;;;;;;;17.09;100.00;100238.69;5032701;28;20025;-45
2023/07/24 02:43:26;;;;;;;0.00;0.00;;;;;;;17.10;100.00;100235.72;5030580;28;20480;-44
2023/07/24 02:45:51;;;;;;;0.00;0.00;;;;;;;17.07;100.00;100233.47;5030935;28;20093;-44
2023/07/24 02:48:16;;;;;;;0.00;0.00;;;;;;;17.06;100.00;100234.56;5030795;28;20565;-44
2023/07/24 02:50:42;;;;;;;0.00;0.00;;;;;;;17.05;100.00;100245.66;5030940;28;20057;-47
2023/07/24 02:53:07;;;;;;;0.00;0.00;;;;;;;17.02;100.00;100232.53;5029640;28;20026;-49
2023/07/24 02:55:33;;;;;;;0.00;0.00;;;;;;;17.04;100.00;100220.38;5030618;28;20043;-45
2023/07/24 02:57:58;;;;;;;0.00;0.00;;;;;;;17.07;100.00;100224.50;5030649;28;20049;-46
2023/07/24 03:00:23;;;;;;;0.00;0.00;;;;;;;17.07;100.00;100229.94;5030691;28;20097;-47
2023/07/24 03:02:49;;;;;;;0.00;0.00;;;;;;;17.07;100.00;100238.09;5030677;28;20021;-45
2023/07/24 03:05:14;;;;;;;0.00;0.00;;;;;;;17.01;100.00;100228.16;5029283;28;20476;-46
2023/07/24 03:07:40;;;;;;;0.00;0.00;;;;;;;17.00;100.00;100231.94;5030332;28;20083;-46
2023/07/24 03:10:05;;;;;;;0.00;0.00;;;;;;;16.97;100.00;100240.59;5030708;28;20228;-45
2023/07/24 03:12:31;;;;;;;0.00;0.00;;;;;;;16.97;100.00;100246.84;5029265;28;20352;-47
2023/07/24 03:14:56;;;;;;;0.00;0.00;;;;;;;16.94;100.00;100241.06;5030586;28;20109;-45
2023/07/24 03:17:22;;;;;;;0.00;0.00;;;;;;;16.95;100.00;100245.44;5030641;28;20022;-49
2023/07/24 03:19:48;;;;;;;0.00;0.00;;;;;;;16.94;100.00;100243.78;5030379;28;20079;-46
2023/07/24 03:22:13;;;;;;;0.00;0.00;;;;;;;16.95;100.00;100242.72;5030244;28;20026;-48
2023/07/24 03:24:39;;;;;;;0.00;0.00;;;;;;;16.91;100.00;100236.94;5030482;28;20105;-46
2023/07/24 03:27:04;;;;;;;0.00;0.00;;;;;;;16.86;100.00;100234.94;5028764;28;20026;-47
2023/07/24 03:29:30;;;;;;;0.00;0.00;;;;;;;16.90;100.00;100227.13;5030217;28;20116;-48
2023/07/24 03:31:55;;;;;;;0.00;0.00;;;;;;;16.87;100.00;100247.44;5030128;28;20083;-47
2023/07/24 03:34:20;;;;;;;0.00;0.00;;;;;;;16.87;100.00;100241.19;5030207;28;20345;-46
2023/07/24 03:36:46;;;;;;;0.00;0.00;;;;;;;16.84;100.00;100239.78;5030185;28;20079;-47
2023/07/24 03:39:11;;;;;;;0.00;0.00;;;;;;;16.80;100.00;100235.91;5029913;28;20108;-47
2023/07/24 03:41:38;;;;;;;0.00;0.00;;;;;;;16.80;100.00;100230.47;5030069;28;20365;-47
2023/07/24 03:44:03;;;;;;;0.00;0.00;;;;;;;16.82;100.00;100239.19;5030473;28;20029;-47
2023/07/24 03:46:28;;;;;;;0.00;0.00;;;;;;;16.81;100.00;100231.28;5030035;28;20390;-49
2023/07/24 03:48:54;;;;;;;0.00;0.00;;;;;;;16.84;100.00;100237.06;5030087;28;20059;-48
2023/07/24 03:51:19;;;;;;;0.00;0.00;;;;;;;16.84;100.00;100226.19;5032951;28;20021;-47
2023/07/24 03:53:45;;;;;;;0.00;0.00;;;;;;;16.86;100.00;100237.66;5033612;28;20108;-45
2023/07/24 03:56:10;;;;;;;0.00;0.00;;;;;;;16.91;100.00;100241.56;5033834;28;20036;-48
2023/07/24 03:58:35;;;;;;;0.00;0.00;;;;;;;16.92;100.00;100243.19;5033749;28;20376;-50
2023/07/24 04:01:01;;;;;;;0.00;0.00;;;;;;;16.97;100.00;100229.72;5034174;28;20149;-46
2023/07/24 04:03:26;;;;;;;0.00;0.00;;;;;;;16.99;100.00;100238.47;5033879;28;20029;-44
2023/07/24 04:05:51;;;;;;;0.00;0.00;;;;;;;16.99;100.00;100238.47;5033837;28;20083;-46
2023/07/24 04:08:17;;;;;;;0.00;0.00;;;;;;;16.97;100.00;100240.59;5033433;28;20519;-46
2023/07/24 04:10:42;;;;;;;0.00;0.00;;;;;;;17.00;100.00;100226.50;5032398;28;20394;-48
2023/07/24 04:13:07;;;;;;;0.00;0.00;;;;;;;17.02;100.00;100229.81;5033455;28;20388;-49
2023/07/24 04:15:33;;;;;;;0.00;0.00;;;;;;;17.04;100.00;100227.72;5033344;28;20036;-46
2023/07/24 04:17:58;;;;;;;0.00;0.00;;;;;;;17.01;100.00;100236.31;5033148;28;20734;-48
2023/07/24 04:20:23;;;;;;;0.00;0.00;;;;;;;17.02;100.00;100237.97;5033372;28;20032;-47
2023/07/24 04:22:49;;;;;;;0.00;0.00;;;;;;;17.03;100.00;100232.28;5033886;28;20076;-45
2023/07/24 04:25:15;;;;;;;0.00;0.00;;;;;;;17.05;100.00;100234.78;5033826;28;20430;-46
2023/07/24 04:27:41;;;;;;;0.00;0.00;;;;;;;17.04;100.00;100230.41;5033479;28;20029;-47
2023/07/24 04:30:07;;;;;;;0.00;0.00;;;;;;;17.04;100.00;100241.28;5033088;28;20296;-46
2023/07/24 04:32:32;;;;;;;0.00;0.00;;;;;;;17.07;100.00;100235.38;5033167;28;20037;-49
2023/07/24 04:34:57;;;;;;;0.00;0.00;;;;;;;17.08;100.00;100239.72;5032876;28;20028;-48
2023/07/24 04:37:23;;;;;;;0.00;0.00;;;;;;;17.10;100.00;100240.31;5033060;28;20105;-50
2023/07/24 04:39:49;;;;;;;0.00;0.00;;;;;;;17.10;100.00;100235.72;5032851;28;20032;-49
2023/07/24 04:42:14;;;;;;;0.00;0.00;;;;;;;17.10;100.00;100234.88;5033072;28;20458;-47
2023/07/24 04:44:39;;;;;;;0.00;0.00;;;;;;;17.14;100.00;100236.06;5031569;28;20057;-50
2023/07/24 04:47:05;;;;;;;0.00;0.00;;;;;;;17.15;100.00;100236.91;5032631;28;20022;-49
2023/07/24 04:49:30;;;;;;;0.00;0.00;;;;;;;17.13;100.00;100242.56;5032482;28;20490;-46
2023/07/24 04:51:56;;;;;;;0.00;0.00;;;;;;;17.17;100.00;100238.31;5032616;28;20083;-48
2023/07/24 04:54:21;;;;;;;0.00;0.00;;;;;;;17.18;100.00;100242.66;5032600;28;20034;-50
2023/07/24 04:56:47;;;;;;;0.00;0.00;;;;;;;17.20;100.00;100240.53;5032366;28;20448;-47
2023/07/24 04:59:12;;;;;;;0.00;0.00;;;;;;;17.24;100.00;100230.00;5032552;28;20025;-50
2023/07/24 05:01:37;;;;;;;0.00;0.00;;;;;;;17.22;100.00;100232.13;5031491;28;20029;-47
2023/07/24 05:04:03;;;;;;;0.00;0.00;;;;;;;17.25;100.00;100232.50;5032288;28;20483;-47
2023/07/24 05:06:28;;;;;;;0.00;0.00;;;;;;;17.29;100.00;100235.53;5032511;28;20021;-46
2023/07/24 05:08:54;;;;;;;0.00;0.00;;;;;;;17.31;100.00;100231.53;5032971;28;20504;-48
2023/07/24 05:11:19;;;;;;;0.00;0.00;;;;;;;17.31;100.00;100231.53;5032862;28;20037;-47
2023/07/24 05:13:44;;;;;;;0.00;0.00;;;;;;;17.28;100.00;100226.56;5032730;28;20048;-47
2023/07/24 05:16:10;;;;;;;0.00;0.00;;;;;;;17.34;100.00;100235.66;5032873;28;20510;-47
2023/07/24 05:18:35;;;;;;;0.00;0.00;;;;;;;17.36;100.00;100233.53;5030923;28;20032;-47
2023/07/24 05:21:01;;;;;;;0.00;0.00;;;;;;;17.39;100.00;100230.31;5030928;28;20021;-47
2023/07/24 05:23:26;;;;;;;0.00;0.00;;;;;;;17.35;100.00;100231.84;5032196;28;20100;-51
2023/07/24 05:25:58;;;;;;;0.00;0.00;;;;;;;17.38;100.00;100239.56;5032307;28;20033;-50
2023/07/24 05:28:27;;;;;;;0.00;0.00;;;;;;;17.33;100.00;100234.81;5031848;28;20037;-50
2023/07/24 05:30:53;;;;;;;0.00;0.00;;;;;;;17.39;100.00;100229.50;5031806;28;20044;-45
2023/07/24 05:33:18;;;;;;;0.00;0.00;;;;;;;17.37;100.00;100228.91;5031926;28;20380;-47
2023/07/24 05:35:43;;;;;;;0.00;0.00;;;;;;;17.40;100.00;100228.41;5032034;28;20108;-46
2023/07/24 05:38:09;;;;;;;0.00;0.00;;;;;;;17.42;100.00;100224.38;5031726;28;20109;-45
2023/07/24 05:40:34;;;;;;;0.00;0.00;;;;;;;17.50;100.00;100217.72;5031651;28;20029;-47
2023/07/24 05:43:00;;;;;;;0.00;0.00;;;;;;;17.51;100.00;100231.09;5031867;28;20509;-46
2023/07/24 05:45:26;;;;;;;0.00;0.00;;;;;;;17.49;100.00;100224.25;5030189;28;20025;-50
2023/07/24 05:47:52;;;;;;;0.00;0.00;;;;;;;17.56;100.00;100233.06;5031451;28;20107;-46
2023/07/24 05:50:17;;;;;;;0.00;0.00;;;;;;;17.63;100.00;100233.75;5031334;28;20033;-49
2023/07/24 05:52:42;;;;;;;0.00;0.00;;;;;;;17.56;100.00;100238.53;5031803;28;20025;-46
2023/07/24 05:55:08;;;;;;;0.00;0.00;;;;;;;17.55;100.00;100237.69;5031447;28;20433;-48
2023/07/24 05:57:33;;;;;;;0.00;0.00;;;;;;;17.57;100.00;100232.03;5031376;28;20103;-47
2023/07/24 05:59:59;;;;;;;0.00;0.00;;;;;;;17.57;100.00;100229.31;5031291;28;20113;-47
2023/07/24 06:02:24;;;;;;;0.00;0.00;;;;;;;17.54;100.00;100230.63;5031187;28;20025;-48
2023/07/24 06:04:49;;;;;;;0.00;0.00;;;;;;;17.53;100.00;100233.56;5031271;28;20093;-48
2023/07/24 06:07:15;;;;;;;0.00;0.00;;;;;;;17.56;100.00;100227.63;5031258;28;20277;-47
2023/07/24 06:09:40;;;;;;;0.00;0.00;;;;;;;17.57;100.00;100229.31;5031019;28;20120;-47
2023/07/24 06:12:06;;;;;;;0.00;0.00;;;;;;;17.57;100.00;100229.31;5031534;28;20025;-50
2023/07/24 06:14:31;;;;;;;0.00;0.00;;;;;;;17.52;100.00;100231.94;5030818;28;20021;-49
2023/07/24 06:16:56;;;;;;;0.00;0.00;;;;;;;17.58;100.00;100233.66;5031288;28;20384;-45
2023/07/24 06:19:22;;;;;;;0.10;0.00;;;;;;;17.65;100.00;100237.06;5031099;28;20037;-47
2023/07/24 06:21:47;;;;;;;0.00;0.00;;;;;;;17.69;100.00;100243.69;5030979;28;20017;-49
2023/07/24 06:24:13;;;;;;;0.00;0.00;;;;;;;17.72;100.00;100237.75;5031042;28;20026;-49
2023/07/24 06:26:39;;;;;;;0.00;0.00;;;;;;;17.75;100.00;100248.16;5031108;28;20108;-47
2023/07/24 06:29:04;;;;;;;0.00;0.00;;;;;;;17.81;100.00;100245.56;5031697;28;20558;-47
2023/07/24 06:31:30;;;;;;;0.00;0.00;;;;;;;17.86;100.00;100248.38;5031723;28;20044;-49
2023/07/24 06:33:55;;;;;;;0.00;0.00;;;;;;;17.94;100.00;100246.06;5031105;28;20388;-47
2023/07/24 06:36:20;;;;;;;0.00;0.00;;;;;;;18.01;100.00;100250.53;5031692;28;20025;-45
2023/07/24 06:38:47;;;;;;;0.00;0.00;;;;;;;17.97;100.00;100251.03;5032736;28;20112;-46
2023/07/24 06:41:15;;;;;;;0.00;0.00;;;;;;;17.93;100.00;100246.31;5031963;28;20030;-46
2023/07/24 06:43:40;;;;;;;;;;;;;;;17.98;100.00;100251.84;5030679;28;20025;-49
2023/07/24 06:46:05;;;;;;;0.00;0.00;;;;;;;18.02;100.00;100250.28;5029845;28;19909;-49
2023/07/24 06:48:32;;;;;;;0.00;0.00;;;;;;;17.97;100.00;100247.47;5029819;28;20034;-48
2023/07/24 06:50:57;;;;;;;0.00;0.00;;;;;;;17.93;100.00;100260.78;5031072;28;20061;-49
2023/07/24 06:53:22;;;;;;;0.00;0.00;;;;;;;17.98;100.00;100257.28;5031142;28;20025;-47
2023/07/24 06:55:48;;;;;;;0.00;0.00;;;;;;;18.04;100.00;100250.88;5031144;28;20018;-48
2023/07/24 06:58:13;;;;;;;0.00;0.00;;;;;;;18.13;100.00;100249.38;5031120;28;20046;-47
2023/07/24 07:00:38;;;;;;;0.00;0.00;;;;;;;18.30;100.00;100251.28;5030782;28;20038;-51
2023/07/24 07:03:04;;;;;;;0.00;0.00;;;;;;;18.33;100.00;100248.09;5031076;28;20440;-50
2023/07/24 07:05:31;;;;;;;0.05;0.00;;;;;;;18.79;100.00;100243.34;5031555;28;20090;-43
2023/07/24 07:07:57;;;;;;;0.00;0.00;;;;;;;19.27;100.00;100230.88;5031526;28;20040;-45
2023/07/24 07:10:22;;;;;;;0.00;0.00;;;;;;;19.51;100.00;100229.56;5033077;28;20033;-44
2023/07/24 07:12:47;;;;;;;0.00;0.00;;;;;;;20.15;100.00;100225.28;5031229;28;20468;-44
2023/07/24 07:15:13;;;;;;;0.00;0.00;;;;;;;20.94;100.00;100220.91;5030802;28;20503;-44
2023/07/24 07:17:38;;;;;;;0.00;0.00;;;;;;;21.17;100.00;100204.06;5030576;28;20022;-46
2023/07/24 07:20:05;;;;;;;0.00;0.00;;;;;;;21.47;100.00;100202.53;5030716;28;20036;-46
2023/07/24 07:22:30;;;;;;;0.00;0.00;;;;;;;21.49;100.00;100194.88;5030141;28;20410;-46
2023/07/24 07:24:55;;;;;;;0.00;0.00;;;;;;;21.27;100.00;100198.63;5031230;28;20049;-44
2023/07/24 07:27:21;;;;;;;0.00;0.00;;;;;;;20.45;100.00;100205.53;5034102;28;20037;-46
2023/07/24 07:29:46;;;;;;;0.00;0.00;;;;;;;20.14;100.00;100199.03;5033954;28;20179;-47
2023/07/24 07:32:11;;;;;;;0.00;0.00;;;;;;;19.94;100.00;100197.78;5033862;28;20140;-46
2023/07/24 07:34:38;;;;;;;0.00;0.00;;;;;;;20.04;100.00;100202.53;5034144;28;20025;-46
2023/07/24 07:37:05;;;;;;;0.00;0.00;;;;;;;20.08;100.00;100192.69;5034164;28;20111;-46
2023/07/24 07:39:30;;;;;;;0.00;0.00;;;;;;;20.71;100.00;100190.16;5034014;28;20037;-48
2023/07/24 07:41:55;;;;;;;0.00;0.00;;;;;;;20.80;100.00;100183.09;5033854;28;20121;-47
2023/07/24 07:44:21;;;;;;;0.00;0.00;;;;;;;21.36;100.00;100184.41;5033993;28;20056;-49
2023/07/24 07:46:46;;;;;;;0.00;0.00;;;;;;;21.37;100.00;100169.63;5033532;28;20017;-47
2023/07/24 07:49:11;;;;;;;0.00;0.00;;;;;;;20.83;100.00;100174.38;5033855;28;20052;-48
2023/07/24 07:51:37;;;;;;;0.00;0.00;;;;;;;20.43;100.00;100193.22;5033792;28;20032;-45
2023/07/24 07:54:02;;;;;;;0.00;0.00;;;;;;;20.13;100.00;100187.28;5044102;28;20024;-48
2023/07/24 07:56:28;;;;;;;0.00;0.00;;;;;;;19.91;100.00;100194.75;5053422;28;20494;-46
2023/07/24 07:58:54;;;;;;;0.00;0.00;;;;;;;19.95;100.00;100187.69;5053512;28;20057;-46
2023/07/24 08:01:19;;;;;;;0.00;0.00;;;;;;;19.80;100.00;100201.19;5052141;28;20070;-46
2023/07/24 08:03:45;;;;;;;0.00;0.00;;;;;;;20.03;100.00;100205.50;5052150;28;20033;-49
2023/07/24 08:06:10;;;;;;;0.00;0.00;;;;;;;20.08;100.00;100203.63;5053672;28;20023;-48
2023/07/24 08:08:35;;;;;;;0.00;0.00;;;;;;;20.04;100.00;100201.69;5053295;28;20047;-44
2023/07/24 08:11:06;;;;;;;0.00;0.00;;;;;;;19.94;100.00;100207.88;5053590;28;20494;-47
2023/07/24 08:13:31;;;;;;;0.00;0.00;;;;;;;19.94;100.00;100200.50;5053447;28;20025;-48
2023/07/24 08:15:56;;;;;;;0.00;0.00;;;;;;;19.86;100.00;100211.91;5053416;28;20493;-46
2023/07/24 08:18:22;;;;;;;0.00;0.00;;;;;;;19.84;100.00;100196.88;5053055;28;20051;-49
2023/07/24 08:20:47;;;;;;;0.00;0.00;;;;;;;20.08;100.00;100197.34;5053053;28;20109;-49
2023/07/24 08:23:12;;;;;;;0.00;0.00;;;;;;;20.13;100.00;100202.84;5053021;28;20035;-49
2023/07/24 08:25:38;;;;;;;0.00;0.00;;;;;;;20.18;100.00;100194.69;5053334;28;20043;-50
2023/07/24 08:28:04;;;;;;;0.00;0.00;;;;;;;20.04;100.00;100202.53;5052983;28;20021;-45
2023/07/24 08:30:30;;;;;;;0.00;0.00;;;;;;;19.76;100.00;100211.00;5053569;28;20033;-47
2023/07/24 08:32:56;;;;;;;0.00;0.00;;;;;;;19.60;100.00;100204.53;5052852;28;20036;-47
2023/07/24 08:35:21;;;;;;;0.00;0.00;;;;;;;19.46;100.00;100209.56;5052702;28;20029;-48
2023/07/24 08:37:46;;;;;;;0.00;0.00;;;;;;;19.11;100.00;100210.78;5052418;28;20061;-50
2023/07/24 08:40:12;;;;;;;0.00;0.00;;;;;;;19.03;100.00;100209.31;5052824;28;20037;-47
2023/07/24 08:42:39;;;;;;;0.00;0.00;;;;;;;19.10;100.00;100219.25;5052358;28;20021;-47
2023/07/24 08:45:06;;;;;;;0.00;0.00;;;;;;;19.10;100.00;100211.06;5052701;28;20025;-46
2023/07/24 08:47:36;;;;;;;0.00;0.00;;;;;;;19.21;100.00;100213.63;5051429;28;20475;-54
2023/07/24 08:50:01;;;;;;;0.00;0.00;;;;;;;19.19;100.00;100204.06;5052521;28;20036;-44
2023/07/24 08:52:27;;;;;;;0.00;0.00;;;;;;;19.36;100.00;100196.63;5051172;28;20028;-46
2023/07/24 08:54:54;;;;;;;0.00;0.00;;;;;;;20.49;100.00;100193.00;5051311;28;20029;-48
2023/07/24 08:57:20;;;;;;;0.00;0.00;;;;;;;21.44;100.00;100181.19;5052350;28;20148;-46
2023/07/24 08:59:45;;;;;;;0.00;0.00;;;;;;;22.04;100.00;100187.81;5050928;28;20083;-48
2023/07/24 09:02:10;;;;;;;0.00;0.00;;;;;;;22.15;100.00;100180.41;5052459;28;20286;-48
2023/07/24 09:04:36;;;;;;;0.00;0.00;;;;;;;21.96;100.00;100182.03;5052343;28;20025;-46
2023/07/24 09:07:02;;;;;;;0.00;0.00;;;;;;;21.80;100.00;100178.47;5052256;28;20025;-50
2023/07/24 09:09:30;;;;;;;0.00;0.00;;;;;;;21.87;100.00;100177.13;5052042;28;20056;-46
2023/07/24 09:11:55;;;;;;;0.00;0.00;;;;;;;21.83;100.00;100172.47;5052263;28;20033;-49
2023/07/24 09:14:25;;;;;;;0.00;0.00;;;;;;;21.61;100.00;100162.56;5052350;28;20100;-46
2023/07/24 09:17:02;;;;;;;0.00;0.00;;;;;;;21.46;100.00;100163.41;5052409;28;20036;-49
2023/07/24 09:19:27;;;;;;;0.00;0.00;;;;;;;21.09;100.00;100163.53;5052344;28;20090;-47
2023/07/24 09:21:52;;;;;;;0.00;0.00;;;;;;;20.62;100.00;100175.34;5052127;28;20037;-47
2023/07/24 09:24:18;;;;;;;0.00;0.00;;;;;;;20.35;100.00;100169.94;5051916;28;20032;-49
2023/07/24 09:26:51;;;;;;;0.00;0.00;;;;;;;20.16;100.00;100172.28;5051896;28;20127;-49
2023/07/24 09:29:18;;;;;;;0.00;0.00;;;;;;;20.20;100.00;100178.88;5052000;28;20044;-47
2023/07/24 09:31:43;;;;;;;0.00;0.00;;;;;;;20.10;100.00;100178.78;5050534;28;20021;-47
2023/07/24 09:34:18;;;;;;;0.00;0.00;;;;;;;20.10;100.00;100176.88;5050558;28;20036;-46
2023/07/24 09:36:44;;;;;;;0.00;0.00;;;;;;;19.96;100.00;100183.88;5051543;28;20051;-46
2023/07/24 09:39:13;;;;;;;0.00;0.00;;;;;;;19.73;100.00;100190.50;5051390;28;20108;-46
2023/07/24 09:41:39;;;;;;;0.00;0.00;;;;;;;19.55;100.00;100197.09;5051846;28;20060;-46
2023/07/24 09:44:04;;;;;;;0.00;0.00;;;;;;;19.69;100.00;100203.00;5051839;28;20025;-48
2023/07/24 09:46:31;;;;;;;0.00;0.00;;;;;;;19.59;100.00;100208.31;5051706;28;20040;-45
2023/07/24 09:48:57;;;;;;;0.00;0.00;;;;;;;19.74;100.00;100203.06;5049623;28;20033;-50
2023/07/24 09:51:23;;;;;;;0.00;0.00;;;;;;;19.84;100.00;100192.22;5051580;28;20182;-47
2023/07/24 09:54:02;;;;;;;0.00;0.00;;;;;;;19.87;100.00;100197.16;5051226;28;20388;-47
2023/07/24 09:56:27;;;;;;;0.00;0.00;;;;;;;19.88;100.00;100196.09;5050731;28;20017;-49
2023/07/24 09:58:55;;;;;;;0.00;0.00;;;;;;;19.93;100.00;100181.66;5051210;28;20064;-48
2023/07/24 10:01:20;;;;;;;0.00;0.00;;;;;;;20.02;100.00;100190.22;5051357;28;20036;-49
2023/07/24 10:03:49;;;;;;;0.00;0.00;;;;;;;20.38;100.00;100180.38;5051148;28;20025;-47
2023/07/24 10:06:16;;;;;;;0.00;0.00;;;;;;;21.20;100.00;100175.34;5051210;28;20108;-49
2023/07/24 10:08:42;;;;;;;0.00;0.00;;;;;;;21.74;100.00;100176.84;5051304;28;20033;-48
2023/07/24 10:11:08;;;;;;;0.00;0.00;;;;;;;22.10;100.00;100164.78;5051418;28;20094;-47
2023/07/24 10:13:36;;;;;;;0.00;0.00;;;;;;;22.23;100.00;100170.84;5050071;28;20391;-48
2023/07/24 10:16:03;;;;;;;0.00;0.00;;;;;;;22.95;100.00;100166.00;5049586;28;20104;-50
2023/07/24 10:18:32;;;;;;;0.00;0.00;;;;;;;23.74;100.00;100166.16;5049623;28;20111;-48
2023/07/24 10:21:01;;;;;;;0.00;0.00;;;;;;;24.07;100.00;100156.28;5050725;28;20029;-47
2023/07/24 10:23:27;;;;;;;0.00;0.00;;;;;;;24.65;100.00;100158.19;5051029;28;20491;-49
2023/07/24 10:25:52;;;;;;;0.00;0.00;;;;;;;25.06;100.00;100146.66;5050694;28;20021;-46
2023/07/24 10:28:18;;;;;;;0.00;0.00;;;;;;;25.27;100.00;100144.47;5051209;28;20028;-47
2023/07/24 10:30:44;;;;;;;0.00;0.00;;;;;;;25.11;100.00;100147.41;5050696;28;20532;-49
2023/07/24 10:33:17;;;;;;;0.00;0.00;;;;;;;24.75;100.00;100152.56;5049711;28;20025;-49
2023/07/24 10:35:45;;;;;;;0.00;0.00;;;;;;;25.09;100.00;100152.41;5050535;28;20044;-49
2023/07/24 10:38:13;;;;;;;0.00;0.00;;;;;;;25.22;100.00;100144.56;5050988;28;20490;-47
2023/07/24 10:40:40;;;;;;;0.00;0.00;;;;;;;25.15;100.00;100150.41;5051207;28;20096;-44
2023/07/24 10:43:07;;;;;;;0.00;0.00;;;;;;;24.69;100.00;100160.03;5050978;28;20032;-46
2023/07/24 10:45:39;;;;;;;;;;;;;;;24.49;100.00;100155.59;5051089;28;20052;-46
2023/07/24 10:48:05;;;;;;;0.00;0.00;;;;;;;24.17;100.00;100164.44;5050653;28;19913;-46
2023/07/24 10:50:40;;;;;;;0.00;0.00;;;;;;;23.67;100.00;100167.28;5049350;28;20032;-49
2023/07/24 10:53:06;;;;;;;0.00;0.00;;;;;;;23.25;100.00;100170.56;5050770;28;20134;-47
2023/07/24 10:55:31;;;;;;;0.00;0.00;;;;;;;23.15;100.00;100176.09;5050410;28;20495;-47
2023/07/24 10:57:57;;;;;;;0.00;0.00;;;;;;;22.55;100.00;100168.59;5050765;28;20049;-49
2023/07/24 11:00:23;;;;;;;0.00;0.00;;;;;;;22.20;100.00;100172.22;5054205;28;20108;-45
2023/07/24 11:02:49;;;;;;;0.00;0.00;;;;;;;22.12;100.00;100175.50;5054745;28;20159;-46
2023/07/24 11:05:14;;;;;;;0.00;0.00;;;;;;;21.89;100.00;100176.84;5054549;28;20068;-47
2023/07/24 11:07:40;;;;;;;0.00;0.00;;;;;;;21.97;100.00;100184.53;5054699;28;20029;-47
2023/07/24 11:10:23;;;;;;;0.00;0.00;;;;;;;22.14;100.00;100184.25;5054517;28;20426;-44
2023/07/24 11:12:50;;;;;;;0.00;0.00;;;;;;;22.50;100.00;100179.56;5054489;28;20053;-48